Time;durP1;ratioP1;P1;durP2;ratioP2;P2;SDS_P1;SDS_P2;PMS_P1;PMS_P2;Temp;Humidity;BMP_temperature;BMP_pressure;BME280_temperature;BME280_humidity;BME280_pressure;Samples;Min_cycle;Max_cycle;Signal;HPM_P1;HPM_P2
2022/01/06 00:00:40;;;;;;;10.37;3.87;;;6.00;1.00;6.50;100104.00;;;;5017232;28;20492;-77
2022/01/06 00:03:09;;;;;;;6.17;4.17;;;6.10;1.00;6.60;67705.00;;;;5020904;28;20492;-78
2022/01/06 00:05:38;;;;;;;7.00;4.03;;;6.10;1.00;6.60;100096.00;;;;5014587;28;20588;-77
2022/01/06 00:08:06;;;;;;;7.20;3.70;;;6.10;1.00;6.60;100117.00;;;;5019582;28;20448;-77
2022/01/06 00:10:36;;;;;;;6.43;4.63;;;6.10;1.00;6.60;100124.00;;;;5017661;28;20471;-78
2022/01/06 00:13:12;;;;;;;5.60;3.83;;;6.00;1.00;6.60;100121.00;;;;5017142;28;20464;-77
2022/01/06 00:15:57;;;;;;;7.27;3.70;;;6.10;1.00;6.60;100135.00;;;;5018551;28;20500;-77
2022/01/06 00:18:36;;;;;;;6.30;4.10;;;6.20;1.00;6.60;100142.00;;;;5014192;28;20468;-77
2022/01/06 00:23:50;;;;;;;5.30;3.60;;;6.20;1.00;6.60;100141.00;;;;5017291;28;20924;-75
2022/01/06 00:26:20;;;;;;;5.70;3.67;;;6.20;1.00;6.60;100142.00;;;;5017789;28;20452;-79
2022/01/06 00:28:48;;;;;;;6.67;4.40;;;6.20;1.00;6.50;100132.00;;;;5013668;28;20457;-77
2022/01/06 00:31:16;;;;;;;7.03;3.90;;;6.10;1.00;6.50;100137.00;;;;5017166;28;21294;-76
2022/01/06 00:33:45;;;;;;;6.53;3.80;;;6.00;1.00;6.40;100144.00;;;;5016809;28;20956;-76
2022/01/06 00:36:13;;;;;;;6.97;3.87;;;5.90;1.00;6.40;100138.00;;;;5013675;28;20457;-76
2022/01/06 00:38:41;;;;;;;8.20;4.07;;;5.90;1.00;6.30;100132.00;;;;5030865;28;20453;-76
2022/01/06 00:41:09;;;;;;;6.67;4.60;;;5.80;1.00;52.70;159395.00;;;;5014628;28;20453;-79
2022/01/06 00:43:39;;;;;;;5.53;3.70;;;6.10;1.00;6.40;100152.00;;;;5016146;28;20465;-77
2022/01/06 00:46:07;;;;;;;5.67;3.90;;;5.90;1.00;217.30;159443.00;;;;5012210;28;20486;-77
2022/01/06 00:48:36;;;;;;;9.50;4.33;;;6.00;1.00;6.50;100146.00;;;;5014267;28;20906;-77
2022/01/06 00:51:04;;;;;;;5.90;4.03;;;6.00;1.00;6.50;100150.00;;;;5010255;28;20476;-77
2022/01/06 00:53:33;;;;;;;7.70;4.00;;;6.10;1.00;6.50;100142.00;;;;5011596;28;20487;-77
2022/01/06 00:56:01;;;;;;;6.80;4.17;;;6.00;1.00;6.50;67685.00;;;;5017534;28;20463;-78
2022/01/06 00:58:29;;;;;;;6.63;4.10;;;6.00;1.00;6.40;100159.00;;;;5014663;28;20462;-77
2022/01/06 01:00:59;;;;;;;9.87;4.37;;;6.00;1.00;6.40;100162.00;;;;5012430;28;20477;-77
2022/01/06 01:03:28;;;;;;;6.97;3.50;;;6.00;1.00;6.40;100149.00;;;;5011951;28;20691;-77
2022/01/06 01:05:58;;;;;;;6.67;4.43;;;6.00;1.00;6.40;100079.00;;;;5013252;28;20546;-76
2022/01/06 01:08:27;;;;;;;7.17;4.53;;;6.00;1.00;6.40;100167.00;;;;5017167;28;20454;-76
2022/01/06 01:10:57;;;;;;;9.37;4.30;;;6.00;1.00;6.50;67687.00;;;;5013973;28;20503;-76
2022/01/06 01:13:30;;;;;;;8.83;4.70;;;6.10;1.00;6.40;100169.00;;;;5016047;28;20457;-76
2022/01/06 01:16:09;;;;;;;5.43;4.13;;;6.00;1.00;6.30;100172.00;;;;5027717;28;20831;-76
2022/01/06 01:18:44;;;;;;;6.43;4.57;;;5.80;1.00;6.30;100170.00;;;;5010746;28;20469;-75
2022/01/06 01:21:13;;;;;;;6.73;3.50;;;5.80;1.00;6.20;67641.00;;;;5011715;28;20449;-76
2022/01/06 01:23:41;;;;;;;6.67;3.87;;;5.80;1.00;6.20;100190.00;;;;5011760;28;21068;-76
2022/01/06 01:26:09;;;;;;;4.40;3.00;;;5.80;1.00;6.20;100202.00;;;;5010506;28;20843;-77
2022/01/06 01:28:43;;;;;;;6.80;3.30;;;5.70;1.00;6.10;100183.00;;;;5011158;28;20442;-77
2022/01/06 01:31:24;;;;;;;5.37;3.37;;;5.60;1.00;6.10;100179.00;;;;5014110;28;20457;-77
2022/01/06 01:33:57;;;;;;;5.43;3.13;;;5.60;1.00;6.10;100204.00;;;;5009842;28;20457;-77
2022/01/06 01:36:26;;;;;;;7.60;3.70;;;5.50;1.00;6.10;100181.00;;;;5015965;28;20464;-77
2022/01/06 01:38:54;;;;;;;9.10;4.10;;;5.40;1.00;6.20;100056.00;;;;5022336;28;20464;-76
2022/01/06 01:41:22;;;;;;;6.77;3.50;;;5.60;1.00;6.10;100207.00;;;;5016397;28;20478;-76
2022/01/06 01:43:53;;;;;;;9.07;3.90;;;5.60;1.00;6.10;67609.00;;;;5018149;28;20468;-77
2022/01/06 01:46:28;;;;;;;6.10;3.83;;;5.60;1.00;6.10;100212.00;;;;5017916;28;20529;-77
2022/01/06 01:49:15;;;;;;;5.23;3.67;;;5.60;1.00;6.00;100198.00;;;;5020319;28;20484;-77
2022/01/06 01:51:44;;;;;;;5.13;3.67;;;5.50;1.00;6.00;100214.00;;;;5015050;28;20462;-77
2022/01/06 01:54:13;;;;;;;6.93;3.73;;;5.40;1.00;5.90;100217.00;;;;5013894;28;20518;-77
2022/01/06 01:56:41;;;;;;;15.63;6.40;;;5.40;1.00;6.00;100220.00;;;;5012911;28;20468;-76
2022/01/06 01:59:09;;;;;;;9.53;3.80;;;5.40;1.00;6.00;100224.00;;;;5009441;28;20477;-77
2022/01/06 02:01:39;;;;;;;5.33;3.93;;;5.50;1.00;6.20;100196.00;;;;5010348;28;20457;-76
2022/01/06 02:04:08;;;;;;;7.93;4.30;;;5.60;1.00;6.20;100221.00;;;;5008699;28;21017;-77
2022/01/06 02:06:36;;;;;;;9.67;3.97;;;5.70;1.00;6.30;100213.00;;;;5007605;28;20469;-77
2022/01/06 02:09:04;;;;;;;8.23;3.40;;;5.80;1.00;6.30;100217.00;;;;5010546;28;20481;-76
2022/01/06 02:11:33;;;;;;;8.27;3.40;;;5.80;1.00;6.40;100237.00;;;;5007725;28;20458;-76
2022/01/06 02:14:05;;;;;;;6.53;4.17;;;5.90;1.00;6.40;100223.00;;;;5010412;28;20945;-75
2022/01/06 02:16:33;;;;;;;7.30;3.63;;;6.00;1.00;6.40;100255.00;;;;5008823;28;21282;-76
2022/01/06 02:19:03;;;;;;;8.93;4.37;;;6.00;1.00;6.50;100256.00;;;;5006832;28;20485;-76
2022/01/06 02:21:33;;;;;;;6.17;2.67;;;6.00;1.00;6.30;100256.00;;;;5005535;28;20537;-76
2022/01/06 02:24:01;;;;;;;7.80;2.80;;;5.80;1.00;6.10;100256.00;;;;5018167;28;20457;-76
2022/01/06 02:26:29;;;;;;;5.83;2.73;;;5.80;1.00;6.10;100257.00;;;;5008273;28;20488;-76
2022/01/06 02:28:57;;;;;;;8.00;2.80;;;5.60;1.00;6.00;100256.00;;;;5010041;28;21202;-76
2022/01/06 02:31:26;;;;;;;4.60;2.70;;;5.60;1.00;5.90;100267.00;;;;5010655;28;20453;-76
2022/01/06 02:33:54;;;;;;;4.47;2.40;;;5.50;1.00;5.90;100259.00;;;;5016029;28;20481;-76
2022/01/06 02:36:22;;;;;;;5.83;2.57;;;5.40;1.00;5.80;100255.00;;;;5022913;28;20461;-76
2022/01/06 02:38:52;;;;;;;8.23;2.73;;;5.30;1.00;5.80;100271.00;;;;5041207;28;20460;-75
2022/01/06 02:41:20;;;;;;;7.27;2.83;;;5.30;1.00;5.80;100255.00;;;;5010263;28;20524;-76
2022/01/06 02:43:50;;;;;;;5.30;2.33;;;5.30;1.00;5.90;100244.00;;;;5006602;28;20445;-76
2022/01/06 02:46:19;;;;;;;6.50;2.87;;;5.40;1.00;6.00;100242.00;;;;5015731;28;20480;-75
2022/01/06 02:48:47;;;;;;;8.20;3.37;;;5.50;1.00;6.00;100264.00;;;;5036269;28;20450;-75
2022/01/06 02:51:15;;;;;;;5.27;2.93;;;5.60;1.00;6.00;100265.00;;;;5011576;28;20457;-76
2022/01/06 02:53:44;;;;;;;9.80;2.50;;;5.50;1.00;6.00;100273.00;;;;5040074;28;20988;-75
2022/01/06 02:56:13;;;;;;;6.23;2.50;;;5.60;1.00;6.10;100265.00;;;;5007182;28;21073;-76
2022/01/06 02:58:42;;;;;;;7.90;3.17;;;5.80;1.00;6.20;100233.00;;;;5040978;28;20445;-76
2022/01/06 03:01:11;;;;;;;10.60;3.00;;;5.70;1.00;6.30;100261.00;;;;5015023;28;20457;-76
2022/01/06 03:03:39;;;;;;;6.23;2.77;;;5.80;1.00;6.30;100245.00;;;;5012460;28;20508;-76
2022/01/06 03:06:07;;;;;;;6.10;2.50;;;5.80;1.00;6.30;100259.00;;;;5009910;28;20481;-76
2022/01/06 03:08:37;;;;;;;7.90;2.63;;;5.80;1.00;6.30;100275.00;;;;5012857;28;20468;-76
2022/01/06 03:11:07;;;;;;;7.00;3.73;;;5.80;1.00;6.20;100264.00;;;;5012076;28;20464;-76
2022/01/06 03:13:36;;;;;;;7.37;3.63;;;5.80;1.00;6.20;100274.00;;;;5014927;28;20459;-76
2022/01/06 03:16:06;;;;;;;7.07;3.73;;;5.80;1.00;6.30;100274.00;;;;5017455;28;20464;-76
2022/01/06 03:18:34;;;;;;;9.60;4.37;;;5.80;1.00;217.30;159405.00;;;;5018274;28;20475;-76
2022/01/06 03:21:02;;;;;;;7.90;3.93;;;5.90;1.00;6.40;67657.00;;;;5040059;28;20480;-76
2022/01/06 03:23:31;;;;;;;9.80;2.87;;;5.90;1.00;6.40;100296.00;;;;5018040;28;20448;-76
2022/01/06 03:26:00;;;;;;;9.20;3.80;;;6.00;1.00;6.40;100308.00;;;;5018705;28;20516;-76
2022/01/06 03:28:28;;;;;;;6.33;3.27;;;5.90;1.00;217.30;159395.00;;;;5018411;28;20468;-76
2022/01/06 03:30:58;;;;;;;7.03;2.70;;;5.80;1.00;6.30;100287.00;;;;5018048;28;20491;-76
2022/01/06 03:33:27;;;;;;;8.17;3.17;;;5.80;1.00;6.30;100299.00;;;;5018909;28;20536;-76
2022/01/06 03:35:55;;;;;;;10.10;3.43;;;5.80;1.00;6.30;100296.00;;;;5018695;28;20457;-76
2022/01/06 03:38:24;;;;;;;7.83;3.20;;;5.90;1.00;6.40;100292.00;;;;5039478;28;20481;-76
2022/01/06 03:40:52;;;;;;;8.60;3.50;;;6.00;1.00;6.40;100302.00;;;;5019608;28;20847;-76
2022/01/06 03:43:20;;;;;;;9.03;4.00;;;6.00;1.00;6.50;100311.00;;;;5017043;28;20468;-77
2022/01/06 03:45:48;;;;;;;8.53;3.60;;;6.10;1.00;6.50;100294.00;;;;5017179;28;20527;-75
2022/01/06 03:48:18;;;;;;;7.30;4.07;;;6.10;1.00;6.50;100318.00;;;;5015918;28;20449;-76
2022/01/06 03:50:46;;;;;;;6.50;3.37;;;6.20;1.00;6.60;100319.00;;;;5013887;28;20487;-76
2022/01/06 03:53:15;;;;;;;10.07;3.73;;;6.20;1.00;6.60;100320.00;;;;5010495;28;20449;-75
2022/01/06 03:55:43;;;;;;;6.80;3.43;;;6.20;1.00;6.60;100289.00;;;;5009432;28;20457;-76
2022/01/06 03:58:11;;;;;;;7.27;3.17;;;6.20;1.00;217.30;159514.00;;;;5014661;28;20462;-75
2022/01/06 04:00:40;;;;;;;11.77;4.43;;;6.20;1.00;6.50;100317.00;;;;5016079;28;20993;-75
2022/01/06 04:03:08;;;;;;;8.43;4.47;;;6.20;1.00;6.60;100330.00;;;;5014194;28;20457;-76
2022/01/06 04:05:38;;;;;;;15.07;4.50;;;6.20;1.00;6.60;100346.00;;;;5016420;28;20458;-76
2022/01/06 04:08:06;;;;;;;9.33;3.83;;;6.20;1.00;6.60;100356.00;;;;5026990;28;20477;-75
2022/01/06 04:10:34;;;;;;;7.40;3.07;;;6.20;1.00;6.50;100125.00;;;;5029069;28;20563;-76
2022/01/06 04:13:03;;;;;;;9.20;4.10;;;6.10;1.00;6.40;100358.00;;;;5028627;28;20457;-76
2022/01/06 04:15:31;;;;;;;6.80;4.30;;;6.00;1.00;6.30;100370.00;;;;5021729;28;20460;-77
2022/01/06 04:17:59;;;;;;;10.80;3.70;;;6.10;1.00;6.10;100343.00;;;;5039472;28;20456;-77
2022/01/06 04:20:28;;;;;;;10.70;3.87;;;5.80;1.00;6.10;100345.00;;;;5017004;28;20482;-77
2022/01/06 04:22:58;;;;;;;6.93;3.40;;;5.70;1.00;6.00;100366.00;;;;5017650;28;20480;-77
2022/01/06 04:25:26;;;;;;;9.20;3.27;;;5.50;1.00;5.80;100360.00;;;;5019303;28;21953;-77
2022/01/06 04:27:54;;;;;;;8.23;3.23;;;5.30;1.00;5.70;100324.00;;;;5035464;28;20997;-76
2022/01/06 04:30:22;;;;;;;11.83;4.03;;;5.20;1.00;5.70;100360.00;;;;5027521;28;20997;-77
2022/01/06 04:32:50;;;;;;;8.03;4.07;;;5.20;1.00;5.60;100297.00;;;;5010287;28;21405;-77
2022/01/06 04:35:19;;;;;;;9.63;5.27;;;5.30;1.00;5.50;100371.00;;;;5008706;28;20453;-77
2022/01/06 04:37:47;;;;;;;11.87;4.27;;;4.90;1.00;5.40;100247.00;;;;5016053;28;20457;-76
2022/01/06 04:40:17;;;;;;;7.70;4.00;;;4.90;1.00;5.40;100359.00;;;;5011966;28;20481;-76
2022/01/06 04:42:45;;;;;;;7.70;3.90;;;4.90;1.00;5.40;100375.00;;;;5009058;28;20453;-76
2022/01/06 04:45:13;;;;;;;7.80;3.40;;;4.80;1.00;5.40;100356.00;;;;5007662;28;20469;-76
2022/01/06 04:47:41;;;;;;;7.80;3.90;;;4.80;1.00;217.30;158970.00;;;;5022202;28;20528;-75
2022/01/06 04:50:10;;;;;;;9.27;3.70;;;4.80;1.00;5.40;100362.00;;;;5009872;28;20478;-75
2022/01/06 04:52:38;;;;;;;15.37;5.93;;;4.80;1.00;5.40;100353.00;;;;5009644;28;20450;-76
2022/01/06 04:55:08;;;;;;;13.40;4.57;;;4.80;1.00;5.40;100379.00;;;;5010058;28;20454;-76
2022/01/06 04:57:38;;;;;;;9.57;4.17;;;4.80;1.00;5.40;100122.00;;;;5012755;28;20449;-75
2022/01/06 05:00:08;;;;;;;10.20;5.00;;;4.90;1.00;5.50;100390.00;;;;5011297;28;20470;-76
2022/01/06 05:02:36;;;;;;;9.00;4.30;;;4.90;1.00;5.60;100346.00;;;;5011628;28;20564;-75
2022/01/06 05:05:06;;;;;;;14.87;6.33;;;5.00;1.00;5.70;100358.00;;;;5014716;28;20458;-76
2022/01/06 05:07:34;;;;;;;10.17;4.60;;;5.20;1.00;5.80;100373.00;;;;5016280;28;20480;-76
2022/01/06 05:10:03;;;;;;;9.97;4.27;;;5.30;1.00;5.90;100374.00;;;;5022718;28;20484;-75
2022/01/06 05:12:32;;;;;;;12.87;4.03;;;5.40;1.00;217.30;159214.00;;;;5022986;28;20549;-76
2022/01/06 05:15:01;;;;;;;13.77;4.90;;;5.40;1.00;5.90;100393.00;;;;5019846;28;20449;-76
2022/01/06 05:17:31;;;;;;;14.70;5.33;;;5.50;1.00;6.00;100360.00;;;;5020126;28;20557;-76
2022/01/06 05:19:59;;;;;;;9.63;4.80;;;5.50;1.00;6.00;100356.00;;;;5015752;28;20594;-76
2022/01/06 05:22:29;;;;;;;13.93;4.93;;;5.60;1.00;6.00;100383.00;;;;5015705;28;20453;-77
2022/01/06 05:24:57;;;;;;;11.67;4.20;;;5.50;1.00;6.00;100410.00;;;;5018492;28;20457;-76
2022/01/06 05:27:26;;;;;;;11.63;5.13;;;5.50;1.00;5.90;100397.00;;;;5019920;28;20491;-76
2022/01/06 05:29:54;;;;;;;12.90;3.97;;;5.50;1.00;5.90;100391.00;;;;5018158;28;20470;-76
2022/01/06 05:32:24;;;;;;;11.73;4.40;;;5.50;1.00;5.80;100400.00;;;;5024263;28;20478;-76
2022/01/06 05:34:52;;;;;;;13.33;4.53;;;5.40;1.00;5.70;67524.00;;;;5011122;28;20460;-76
2022/01/06 05:37:20;;;;;;;15.33;4.10;;;5.30;1.00;5.60;100417.00;;;;5008150;28;20512;-76
2022/01/06 05:39:49;;;;;;;17.10;4.67;;;5.20;1.00;5.60;100424.00;;;;5015765;28;22016;-76
2022/01/06 05:42:17;;;;;;;9.23;4.57;;;5.10;1.00;5.50;100426.00;;;;5009162;28;20461;-76
2022/01/06 05:44:46;;;;;;;11.77;5.07;;;5.10;1.00;5.50;100429.00;;;;5015783;28;20454;-76
2022/01/06 05:47:14;;;;;;;12.53;4.93;;;5.00;1.00;5.40;100415.00;;;;5012229;28;20967;-76
2022/01/06 05:49:44;;;;;;;13.90;5.00;;;4.90;1.00;5.30;100427.00;;;;5012284;28;20493;-76
2022/01/06 05:52:13;;;;;;;21.47;5.90;;;4.80;1.00;5.30;100434.00;;;;5012995;28;20453;-76
2022/01/06 05:54:41;;;;;;;11.90;4.57;;;4.80;1.00;5.30;100430.00;;;;5011542;28;20519;-77
2022/01/06 05:57:11;;;;;;;12.43;5.60;;;4.70;1.00;5.20;100428.00;;;;5014064;28;20461;-76
2022/01/06 05:59:40;;;;;;;11.83;5.30;;;4.70;1.00;217.30;158909.00;;;;5015748;28;20481;-76
2022/01/06 06:02:08;;;;;;;14.33;5.10;;;4.60;1.00;5.20;100443.00;;;;5013518;28;20465;-76
2022/01/06 06:04:36;;;;;;;10.47;4.60;;;4.60;1.00;5.20;100438.00;;;;5009940;28;20880;-76
2022/01/06 06:07:07;;;;;;;12.77;4.50;;;4.70;1.00;5.20;67404.00;;;;5008882;28;20539;-76
2022/01/06 06:09:35;;;;;;;14.23;5.50;;;4.60;1.00;5.20;100451.00;;;;5008459;28;20480;-76
2022/01/06 06:12:06;;;;;;;16.33;5.13;;;4.60;1.00;5.20;100470.00;;;;5023660;28;21040;-76
2022/01/06 06:14:34;;;;;;;17.20;5.50;;;4.50;1.00;5.10;67390.00;;;;5015398;28;20444;-76
2022/01/06 06:17:03;;;;;;;15.80;5.97;;;4.50;1.00;5.10;100458.00;;;;5010934;28;20453;-76
2022/01/06 06:19:31;;;;;;;17.40;6.10;;;4.50;1.00;217.30;158848.00;;;;5008494;28;20497;-76
2022/01/06 06:22:00;;;;;;;14.77;5.60;;;4.50;1.00;5.10;100455.00;;;;5010261;28;20453;-76
2022/01/06 06:24:29;;;;;;;15.97;7.20;;;4.50;1.00;5.00;100480.00;;;;5008187;28;20461;-76
2022/01/06 06:26:58;;;;;;;13.47;4.60;;;4.50;1.00;217.30;158852.00;;;;5014219;28;20449;-76
2022/01/06 06:29:26;;;;;;;18.20;5.13;;;4.50;1.00;5.10;100476.00;;;;5016398;28;20499;-76
2022/01/06 06:31:54;;;;;;;17.43;5.50;;;4.40;1.00;217.30;158842.00;;;;5016997;28;20464;-76
2022/01/06 06:34:23;;;;;;;15.90;6.23;;;4.50;1.00;5.10;100472.00;;;;5015200;28;20464;-76
2022/01/06 06:36:51;;;;;;;14.70;5.63;;;4.70;1.00;5.00;100476.00;;;;5016258;28;20457;-76
2022/01/06 06:39:20;;;;;;;12.40;4.90;;;4.40;1.00;5.00;100483.00;;;;5015309;28;20481;-77
2022/01/06 06:41:49;;;;;;;11.37;6.80;;;4.40;1.00;5.00;100500.00;;;;5015590;28;20457;-76
2022/01/06 06:44:18;;;;;;;16.73;6.60;;;4.40;1.00;5.00;100494.00;;;;5014417;28;20468;-77
2022/01/06 06:46:46;;;;;;;15.57;4.73;;;4.50;1.00;5.00;100494.00;;;;5015175;28;20461;-77
2022/01/06 06:49:14;;;;;;;17.17;5.70;;;4.40;1.00;5.00;67357.00;;;;5024278;28;21041;-77
2022/01/06 06:51:43;;;;;;;15.43;6.10;;;4.40;1.00;5.00;100499.00;;;;5022098;28;20481;-76
2022/01/06 06:54:13;;;;;;;16.63;5.90;;;4.40;1.00;5.00;100519.00;;;;5011861;28;20836;-76
2022/01/06 06:56:42;;;;;;;17.40;5.97;;;4.40;1.00;5.00;100521.00;;;;5009524;28;20587;-76
2022/01/06 06:59:12;;;;;;;11.77;5.57;;;4.50;1.00;4.90;100509.00;;;;5014521;28;20479;-77
2022/01/06 07:01:40;;;;;;;16.37;6.60;;;4.30;1.00;4.90;100524.00;;;;5008890;28;20459;-76
2022/01/06 07:04:08;;;;;;;16.93;6.60;;;4.20;1.00;4.80;100537.00;;;;5012481;28;20448;-76
2022/01/06 07:06:37;;;;;;;13.37;6.10;;;4.20;1.00;4.70;100535.00;;;;5016355;28;20461;-77
2022/01/06 07:09:05;;;;;;;11.43;5.70;;;4.40;1.00;4.80;100523.00;;;;5013578;28;20490;-77
2022/01/06 07:11:34;;;;;;;14.03;5.63;;;4.20;1.00;4.80;100542.00;;;;5017993;28;20460;-77
2022/01/06 07:14:02;;;;;;;14.00;6.07;;;4.30;1.00;4.80;100542.00;;;;5013308;28;20468;-77
2022/01/06 07:16:32;;;;;;;14.00;5.60;;;4.30;1.00;4.90;100556.00;;;;5015754;28;20632;-76
2022/01/06 07:19:00;;;;;;;16.57;6.63;;;4.30;1.00;4.80;100540.00;;;;5013551;28;20487;-77
2022/01/06 07:21:29;;;;;;;12.93;5.77;;;4.30;1.00;4.80;100547.00;;;;5011614;28;20466;-80
2022/01/06 07:23:57;;;;;;;10.00;5.70;;;4.20;1.00;4.90;100541.00;;;;5010453;28;20534;-77
2022/01/06 07:26:25;;;;;;;9.70;6.17;;;4.20;1.00;217.30;158774.00;;;;5010639;28;20461;-78
2022/01/06 07:28:53;;;;;;;18.37;7.90;;;4.30;1.00;4.90;100563.00;;;;5007739;28;21037;-77
2022/01/06 07:31:22;;;;;;;11.60;5.30;;;4.30;1.00;4.90;67339.00;;;;5008892;28;20532;-76
2022/01/06 07:33:52;;;;;;;14.97;6.10;;;4.30;1.00;217.30;158796.00;;;;5017614;28;20460;-76
2022/01/06 07:36:20;;;;;;;14.30;5.53;;;4.30;1.00;5.00;100594.00;;;;5012740;28;20540;-76
2022/01/06 07:38:48;;;;;;;17.10;5.53;;;4.40;1.00;5.00;100573.00;;;;5015340;28;20472;-76
2022/01/06 07:41:17;;;;;;;15.97;5.77;;;4.40;1.00;5.00;67362.00;;;;5012789;28;21417;-75
2022/01/06 07:43:46;;;;;;;12.13;5.30;;;4.40;1.00;5.00;100588.00;;;;5015309;28;20460;-76
2022/01/06 07:46:14;;;;;;;11.40;5.10;;;4.40;1.00;5.00;100594.00;;;;5018054;28;20945;-76
2022/01/06 07:48:55;;;;;;;11.90;5.80;;;4.40;1.00;5.00;100588.00;;;;5015888;28;20607;-77
2022/01/06 07:51:27;;;;;;;14.20;5.67;;;4.40;1.00;5.00;100571.00;;;;5014811;28;20457;-77
2022/01/06 07:53:56;;;;;;;22.23;5.93;;;4.40;1.00;5.00;100600.00;;;;5015262;28;20491;-77
2022/01/06 07:56:24;;;;;;;14.13;5.97;;;4.40;1.00;217.30;158867.00;;;;5015527;28;20448;-76
2022/01/06 07:58:53;;;;;;;10.80;5.50;;;4.50;1.00;5.10;100620.00;;;;5016558;28;20470;-77
2022/01/06 08:01:22;;;;;;;16.00;5.97;;;4.50;1.00;5.20;100626.00;;;;5015597;28;20457;-76
2022/01/06 08:03:52;;;;;;;14.57;6.00;;;4.60;1.00;5.30;100628.00;;;;5016544;28;20464;-76
2022/01/06 08:06:21;;;;;;;11.90;6.57;;;4.60;1.00;5.30;100635.00;;;;5014148;28;20471;-76
2022/01/06 08:08:50;;;;;;;16.47;5.87;;;4.70;1.00;5.40;100640.00;;;;5014419;28;20497;-76
2022/01/06 08:11:19;;;;;;;16.07;6.13;;;4.80;1.00;5.40;100631.00;;;;5012490;28;20459;-78
2022/01/06 08:13:50;;;;;;;13.13;5.70;;;4.90;1.00;5.40;100632.00;;;;5017128;28;20454;-77
2022/01/06 08:16:18;;;;;;;15.43;6.40;;;4.90;1.00;5.50;100639.00;;;;5015462;28;20454;-77
2022/01/06 08:18:47;;;;;;;16.70;5.57;;;4.90;1.00;5.60;100634.00;;;;5018697;28;20912;-77
2022/01/06 08:21:15;;;;;;;12.10;5.43;;;5.00;1.00;5.70;100650.00;;;;5024282;28;20548;-77
2022/01/06 08:23:44;;;;;;;12.83;6.47;;;5.10;1.00;5.90;100652.00;;;;5013861;28;20452;-78
2022/01/06 08:26:18;;;;;;;19.13;6.03;;;5.40;1.00;6.10;100646.00;;;;5013341;28;20445;-77
2022/01/06 08:28:46;;;;;;;16.23;6.00;;;5.60;1.00;6.30;100657.00;;;;5013380;28;20495;-75
2022/01/06 08:31:16;;;;;;;13.37;5.10;;;5.80;1.00;6.40;100646.00;;;;5011673;28;20445;-77
2022/01/06 08:33:45;;;;;;;12.70;5.20;;;6.00;1.00;6.60;67720.00;;;;5013881;28;20805;-76
2022/01/06 08:36:14;;;;;;;15.50;6.47;;;6.10;1.00;6.80;100668.00;;;;5014683;28;20463;-76
2022/01/06 08:38:43;;;;;;;13.90;5.50;;;6.30;1.00;6.80;100658.00;;;;5012994;28;20449;-76
2022/01/06 08:41:12;;;;;;;17.57;5.10;;;6.40;1.00;6.80;100678.00;;;;5011635;28;20965;-76
2022/01/06 08:43:47;;;;;;;12.17;5.50;;;6.60;1.00;6.90;100665.00;;;;5008090;28;20457;-76
2022/01/06 08:46:16;;;;;;;16.70;6.30;;;6.70;1.00;6.90;100691.00;;;;5013155;28;20449;-77
2022/01/06 08:48:44;;;;;;;18.73;6.17;;;6.60;1.00;6.90;100686.00;;;;5010846;28;20547;-77
2022/01/06 08:51:12;;;;;;;11.17;5.73;;;6.50;1.00;6.90;100685.00;;;;5010103;28;20461;-77
2022/01/06 08:53:41;;;;;;;12.30;5.47;;;6.50;1.00;217.30;159651.00;;;;5015052;28;20468;-77
2022/01/06 08:56:10;;;;;;;9.53;5.10;;;6.50;1.00;6.80;100697.00;;;;5013211;28;20471;-77
2022/01/06 08:58:38;;;;;;;12.10;5.53;;;6.50;1.00;217.30;159589.00;;;;5013385;28;20970;-77
2022/01/06 09:01:09;;;;;;;14.23;6.00;;;6.30;1.00;6.50;100680.00;;;;5011318;28;20457;-77
2022/01/06 09:03:37;;;;;;;10.80;5.20;;;6.20;1.00;6.40;100694.00;;;;5013395;28;20526;-75
2022/01/06 09:06:05;;;;;;;13.57;5.60;;;6.10;1.00;6.40;100684.00;;;;5014088;28;20469;-78
2022/01/06 09:08:34;;;;;;;12.00;4.97;;;6.00;1.00;6.30;100692.00;;;;5015251;28;20998;-77
2022/01/06 09:11:02;;;;;;;15.13;5.93;;;5.90;1.00;52.70;159389.00;;;;5016754;28;20477;-77
2022/01/06 09:13:30;;;;;;;10.47;5.50;;;5.90;1.00;6.40;100701.00;;;;5020224;28;20467;-75
2022/01/06 09:16:08;;;;;;;13.53;6.10;;;6.00;1.00;6.50;100699.00;;;;5015172;28;20457;-76
2022/01/06 09:18:38;;;;;;;11.43;5.70;;;6.00;1.00;6.70;100699.00;;;;5012909;28;21377;-76
2022/01/06 09:21:08;;;;;;;12.20;5.40;;;6.10;1.00;6.70;100696.00;;;;5013447;28;20517;-76
2022/01/06 09:23:37;;;;;;;12.70;6.27;;;6.30;1.00;6.60;100700.00;;;;5012363;28;20454;-76
2022/01/06 09:26:05;;;;;;;13.37;6.23;;;6.20;1.00;6.60;100702.00;;;;5015711;28;20520;-77
2022/01/06 09:28:38;;;;;;;12.90;5.60;;;6.20;1.00;6.60;67726.00;;;;5011110;28;20451;-77
2022/01/06 09:31:07;;;;;;;16.47;5.83;;;6.20;1.00;52.70;159556.00;;;;5014181;28;20880;-76
2022/01/06 09:33:37;;;;;;;12.23;5.07;;;6.30;1.00;6.80;100703.00;;;;5013752;28;20882;-77
2022/01/06 09:36:05;;;;;;;10.03;5.10;;;6.30;1.00;6.90;100714.00;;;;5012816;28;20471;-77
2022/01/06 09:38:37;;;;;;;12.37;6.07;;;6.40;1.00;6.80;100718.00;;;;5012173;28;20471;-76
2022/01/06 09:41:06;;;;;;;15.00;5.07;;;6.40;1.00;6.60;100706.00;;;;5012217;28;20488;-77
2022/01/06 09:43:37;;;;;;;15.53;5.43;;;6.30;1.00;6.80;100728.00;;;;5013259;28;21973;-75
2022/01/06 09:46:08;;;;;;;12.60;5.57;;;6.40;1.00;7.00;100727.00;;;;5013857;28;20457;-77
2022/01/06 09:48:40;;;;;;;20.67;6.47;;;6.50;1.00;7.00;100728.00;;;;5014974;28;20480;-77
2022/01/06 09:51:10;;;;;;;13.90;6.90;;;6.60;1.00;7.10;100735.00;;;;5015770;28;20473;-76
2022/01/06 09:53:39;;;;;;;15.40;5.60;;;6.70;1.00;7.20;100729.00;;;;5015854;28;20479;-77
2022/01/06 09:56:07;;;;;;;15.67;5.87;;;6.80;1.00;7.20;100728.00;;;;5029662;28;20453;-76
2022/01/06 09:58:36;;;;;;;13.93;6.13;;;6.90;1.00;7.20;100732.00;;;;5013270;28;21413;-76
2022/01/06 10:01:05;;;;;;;13.60;5.40;;;6.90;1.00;7.40;67901.00;;;;5012689;28;20493;-75
2022/01/06 10:03:42;;;;;;;11.00;6.20;;;7.00;1.00;7.50;100747.00;;;;5012667;28;20575;-76
2022/01/06 10:06:14;;;;;;;15.30;5.60;;;7.10;1.00;7.60;67936.00;;;;5009640;28;20674;-77
2022/01/06 10:08:44;;;;;;;14.87;5.60;;;7.20;1.00;7.60;100739.00;;;;5009067;28;20456;-75
2022/01/06 10:11:15;;;;;;;13.47;6.20;;;7.30;1.00;7.60;100737.00;;;;5009778;28;20481;-75
2022/01/06 10:13:45;;;;;;;14.40;5.50;;;7.30;1.00;7.70;100738.00;;;;5011024;28;20897;-75
2022/01/06 10:16:19;;;;;;;12.47;5.90;;;7.40;1.00;7.80;100737.00;;;;5007468;28;20460;-76
2022/01/06 10:19:05;;;;;;;13.23;6.27;;;7.60;1.00;8.00;100752.00;;;;5009241;28;20496;-76
2022/01/06 10:21:41;;;;;;;14.30;6.27;;;7.60;1.00;8.00;100748.00;;;;5016799;28;20538;-76
2022/01/06 10:24:13;;;;;;;10.60;5.47;;;7.70;1.00;8.10;100756.00;;;;5019330;28;20480;-74
2022/01/06 10:26:53;;;;;;;14.37;5.30;;;7.80;1.00;8.10;100760.00;;;;5014537;28;20989;-73
2022/01/06 10:29:23;;;;;;;11.60;5.13;;;7.90;1.00;8.20;100743.00;;;;5018673;28;20489;-72
2022/01/06 10:31:51;;;;;;;14.37;5.97;;;7.90;1.00;8.20;100746.00;;;;5016088;28;20462;-73
2022/01/06 10:34:21;;;;;;;14.53;6.10;;;7.90;1.00;8.20;100743.00;;;;5013895;28;20500;-73
2022/01/06 10:36:49;;;;;;;14.00;4.97;;;8.00;1.00;217.30;160224.00;;;;5018521;28;20481;-71
2022/01/06 10:39:18;;;;;;;10.83;5.73;;;7.90;1.00;8.20;100730.00;;;;5011443;28;20485;-73
2022/01/06 10:41:46;;;;;;;12.13;6.20;;;7.90;1.00;8.30;100747.00;;;;5007467;28;20568;-71
2022/01/06 10:44:14;;;;;;;11.77;5.70;;;7.90;1.00;8.30;100733.00;;;;5008627;28;20465;-74
2022/01/06 10:46:45;;;;;;;12.73;5.63;;;8.00;1.00;8.50;100739.00;;;;5014109;28;21567;-74
2022/01/06 10:49:17;;;;;;;10.33;4.60;;;8.10;1.00;8.40;100739.00;;;;5010688;28;20484;-74
2022/01/06 10:51:49;;;;;;;12.57;5.60;;;8.20;1.00;8.50;100737.00;;;;5026377;28;21058;-73
2022/01/06 10:54:22;;;;;;;12.00;5.10;;;8.50;1.00;8.40;100719.00;;;;5005246;28;20461;-73
2022/01/06 10:56:59;;;;;;;14.90;4.73;;;8.20;1.00;217.30;160329.00;;;;5005172;28;20557;-73
2022/01/06 10:59:30;;;;;;;10.57;4.97;;;8.20;1.00;8.50;100726.00;;;;5010513;28;20487;-72
2022/01/06 11:01:58;;;;;;;10.07;4.87;;;8.20;1.00;8.50;100730.00;;;;5008388;28;21037;-73
2022/01/06 11:04:27;;;;;;;11.30;5.33;;;8.50;1.00;8.50;100726.00;;;;5007707;28;20461;-72
2022/01/06 11:06:57;;;;;;;15.73;5.07;;;8.30;1.00;8.60;100726.00;;;;5009074;28;20472;-73
2022/01/06 11:09:29;;;;;;;9.50;4.57;;;8.30;1.00;8.60;100734.00;;;;5025960;28;21081;-74
2022/01/06 11:14:46;;;;;;;14.80;6.03;;;8.40;1.00;8.60;100735.00;;;;5008665;28;20461;-73
2022/01/06 11:17:14;;;;;;;9.10;4.60;;;8.40;1.00;8.60;100744.00;;;;5027362;28;20579;-73
2022/01/06 11:19:42;;;;;;;11.03;5.40;;;8.40;1.00;8.70;100743.00;;;;5009363;28;20497;-73